Flight Track Log - Related Links

Times and Time Zones

All times are in EDT time to prevent confusion due to time zone crossing. See the UAL4234 flight status page for this flight to view local times or setup timezone preferences in your user account.

Time Position Orientation Groundspeed Altitude Reporting Facility
EDT Latitude Longitude Course Direction KTS MPH feet Rate Location/Type
Wed 05:07:03 PM 29.9617 -95.3436 97° East 154 177 600  Level Houston Center
Wed 05:08:35 PM 29.9369 -95.2572 108° East 257 296 3,400 1,364 Climbing Houston Center
Wed 05:09:37 PM 29.9533 -95.1731 77° East 261 300 4,100 1,440 Climbing Houston Center
Wed 05:10:00 PM 29.9111 -94.7995 95° East  Level FlightAware Approximate
Wed 05:10:40 PM 29.9697 -95.0878 77° East 270 311 6,400  Level Houston Center
Wed 05:11:00 PM 29.8998 -94.6650 97° East  Level FlightAware Approximate
Wed 05:11:42 PM 29.9861 -95.0011 78° East 274 315 8,600  Level Houston Center
Wed 05:12:00 PM 29.8850 -94.5310 97° East  Level FlightAware Approximate
Wed 05:12:44 PM 30.0031 -94.9072 78° East 293 337 10,400  Level Houston Center
Wed 05:13:46 PM 29.9869 -94.8042 100° East 340 391 11,200 1,306 Climbing Houston Center
Wed 05:14:48 PM 29.9525 -94.6742 107° East 352 405 13,100 1,645 Climbing Houston Center
Wed 05:15:50 PM 29.9244 -94.5636 106° East 358 412 14,600 1,403 Climbing Houston Center
Wed 05:16:52 PM 29.8964 -94.4503 106° East 366 421 16,000 1,355 Climbing Houston Center
Wed 05:17:54 PM 29.8672 -94.3353 106° East 371 427 17,400 1,403 Climbing Houston Center
Wed 05:18:56 PM 29.8592 -94.2125 94° East 383 441 18,900 1,344 Climbing Houston Center
Wed 05:19:59 PM 29.8553 -94.0872 92° East 388 447 20,200 1,344 Climbing Houston Center
Wed 05:21:01 PM 29.8669 -93.9311 85° East 405 466 21,700 1,355 Climbing Houston Center
Wed 05:22:03 PM 29.8803 -93.7992 83° East 414 476 23,000 1,258 Climbing Houston Center
Wed 05:23:05 PM 29.8953 -93.6658 83° East 418 481 24,300 1,403 Climbing Houston Center
Wed 05:24:07 PM 29.9069 -93.5342 84° East 416 479 25,900 1,500 Climbing Houston Center
Wed 05:25:09 PM 29.9183 -93.4003 84° East 419 482 27,400 1,403 Climbing Houston Center
Wed 05:26:11 PM 29.9361 -93.2606 82° East 407 468 28,800 1,161 Climbing Houston Center
Wed 05:27:13 PM 29.9481 -93.1286 84° East 418 481 29,800 1,104 Climbing Houston Center
Wed 05:28:16 PM 29.9650 -92.9667 83° East 428 493 31,100 1,152 Climbing Houston Center
Wed 05:29:18 PM 29.9772 -92.8297 84° East 431 496 32,200 1,016 Climbing Houston Center
Wed 05:30:20 PM 29.9875 -92.6900 85° East 439 505 33,200 968 Climbing Houston Center
Wed 05:31:22 PM 29.9994 -92.5519 84° East 437 503 34,200 871 Climbing Houston Center
Wed 05:32:24 PM 30.0097 -92.4131 85° East 436 502 35,000 387 Climbing Houston Center
Wed 05:33:26 PM 30.0208 -92.2711 85° East 446 513 35,000  Level Houston Center
Wed 05:34:28 PM 30.0347 -92.0878 85° East 476 548 35,000  Level Houston Center
Wed 05:35:31 PM 30.0481 -91.9275 84° East 498 573 35,000  Level Houston Center
Wed 05:36:33 PM 30.0600 -91.7661 85° East 506 582 35,000  Level Houston Center
Wed 05:37:35 PM 30.0722 -91.5958 85° East 506 582 35,000  Level Houston Center
Wed 05:38:37 PM 30.0839 -91.4372 85° East 499 574 35,000  Level Houston Center
Wed 05:39:39 PM 30.0939 -91.2803 86° East 493 567 35,000  Level Houston Center
Wed 05:40:41 PM 30.1056 -91.1236 85° East 491 565 35,000  Level Houston Center
Wed 05:41:43 PM 30.1208 -90.9375 85° East 488 562 35,000  Level Houston Center
Wed 05:42:45 PM 30.1572 -90.7894 74° East 479 551 35,000  Level Houston Center
Wed 05:43:48 PM 30.1931 -90.6417 74° East 479 551 35,000  Level Houston Center
Wed 05:44:50 PM 30.2283 -90.4933 75° East 479 551 35,000  Level Houston Center
Wed 05:45:52 PM 30.2656 -90.3450 74° East 480 552 35,000  Level Houston Center
Wed 05:46:54 PM 30.3006 -90.1964 75° East 480 552 35,000 435 Level Houston Center
Wed 05:47:56 PM 30.3425 -90.0200 75° East 474 545 35,900 919 Climbing Houston Center
Wed 05:48:58 PM 30.3753 -89.8811 75° East 465 535 36,900 532 Climbing Houston Center
Wed 05:50:00 PM 30.4103 -89.7386 74° East 461 531 37,000 48 Climbing Houston Center
Wed 05:51:02 PM 30.4483 -89.5731 75° East 477 549 37,000  Level Houston Center
Wed 05:52:05 PM 30.4825 -89.4239 75° East 478 550 37,000  Level Houston Center
Wed 05:53:07 PM 30.5178 -89.2756 75° East 479 551 37,000  Level Houston Center
Wed 05:54:09 PM 30.5506 -89.1258 76° East 481 554 37,000  Level Houston Center
Wed 05:55:11 PM 30.5842 -88.9781 75° East 475 547 37,000  Level Houston Center
Wed 05:56:13 PM 30.6200 -88.8181 75° East 477 549 37,000  Level Houston Center
Wed 05:57:15 PM 30.6539 -88.6711 75° East 475 547 37,000  Level Houston Center
Wed 05:58:17 PM 30.6936 -88.4939 75° East 476 548 37,000  Level Houston Center
Wed 05:59:19 PM 30.7294 -88.3567 73° East 476 548 37,000  Level Houston Center
Wed 06:00:21 PM 30.8125 -88.2417 50° Northeast 465 535 37,000  Level Houston Center
Wed 06:01:24 PM 30.8967 -88.1292 49° Northeast 463 533 37,000  Level Houston Center
Wed 06:02:26 PM 30.9986 -87.9933 49° Northeast 464 534 37,000  Level Houston Center
Wed 06:03:28 PM 31.0814 -87.8828 49° Northeast 457 526 37,000  Level Houston Center
Wed 06:04:30 PM 31.1669 -87.7692 49° Northeast 464 534 37,000  Level Houston Center
Wed 06:05:32 PM 31.2514 -87.6558 49° Northeast 468 539 37,000  Level Houston Center
Wed 06:06:34 PM 31.3347 -87.5422 49° Northeast 466 536 37,000  Level Houston Center
Wed 06:07:05 PM 31.3858 -87.4783 47° Northeast 463 533 37,000  Level Atlanta Center
Wed 06:08:05 PM 31.4725 -87.3622 49° Northeast 463 533 37,000  Level Atlanta Center
Wed 06:09:05 PM 31.5569 -87.2458 50° Northeast 469 540 37,000  Level Atlanta Center
Wed 06:10:05 PM 31.6433 -87.1294 49° Northeast 469 540 37,000  Level Atlanta Center
Wed 06:11:05 PM 31.7319 -87.0006 51° Northeast 464 534 37,000  Level Atlanta Center
Wed 06:12:05 PM 31.8183 -86.8814 50° Northeast 464 534 37,000  Level Atlanta Center
Wed 06:13:05 PM 31.9044 -86.7642 49° Northeast 464 534 37,000  Level Atlanta Center
Wed 06:14:05 PM 31.9881 -86.6589 47° Northeast 469 540 37,000  Level Atlanta Center
Wed 06:15:05 PM 32.0742 -86.5389 50° Northeast 475 547 37,000  Level Atlanta Center
Wed 06:16:05 PM 32.1578 -86.4211 50° Northeast 475 547 37,000  Level Atlanta Center
Wed 06:17:05 PM 32.2481 -86.2858 52° Northeast 493 567 37,000  Level Atlanta Center
Wed 06:18:05 PM 32.3292 -86.1797 48° Northeast 482 555 37,000  Level Atlanta Center
Wed 06:19:05 PM 32.4106 -86.0636 50° Northeast 476 548 37,000  Level Atlanta Center
Wed 06:20:05 PM 32.5042 -85.9475 46° Northeast 474 545 37,000  Level Atlanta Center
Wed 06:21:05 PM 32.6000 -85.8239 47° Northeast 484 557 37,000  Level Atlanta Center
Wed 06:22:05 PM 32.6914 -85.7025 48° Northeast 484 557 37,000  Level Atlanta Center
Wed 06:23:05 PM 32.7786 -85.5856 48° Northeast 484 557 37,000  Level Atlanta Center
Wed 06:24:05 PM 32.8697 -85.4658 48° Northeast 479 551 37,000  Level Atlanta Center
Wed 06:25:05 PM 32.9544 -85.3386 52° Northeast 479 551 37,000  Level Atlanta Center
Wed 06:26:05 PM 32.9936 -85.1856 73° East 469 540 37,000  Level Atlanta Center
Wed 06:27:05 PM 33.0325 -85.0250 74° East 462 532 37,000  Level Atlanta Center
Wed 06:28:05 PM 33.0672 -84.8667 75° East 467 537 37,000  Level Atlanta Center
Wed 06:29:05 PM 33.1014 -84.7108 75° East 476 548 37,000  Level Atlanta Center
Wed 06:30:05 PM 33.1356 -84.5522 76° East 486 559 37,000  Level Atlanta Center
Wed 06:31:05 PM 33.1697 -84.3936 76° East 491 565 37,000  Level Atlanta Center
Wed 06:32:05 PM 33.2056 -84.2375 75° East 486 559 37,000  Level Atlanta Center
Wed 06:33:05 PM 33.2389 -84.0761 76° East 491 565 37,000  Level Atlanta Center
Wed 06:34:05 PM 33.2764 -83.9144 74° East 491 565 37,000  Level Atlanta Center
Wed 06:35:05 PM 33.3097 -83.7581 76° East 491 565 37,000 -400 Level Atlanta Center
Wed 06:36:05 PM 33.3447 -83.5986 75° East 491 565 36,200 -500 Descending Atlanta Center
Wed 06:37:05 PM 33.3775 -83.4369 76° East 491 565 36,000 -100 Descending Atlanta Center
Wed 06:38:05 PM 33.4100 -83.2797 76° East 491 565 36,000 -300 Level Atlanta Center
Wed 06:39:05 PM 33.4422 -83.1328 75° East 491 565 35,400 -650 Descending Atlanta Center
Wed 06:40:05 PM 33.4744 -82.9778 76° East 491 565 34,700 -800 Descending Atlanta Center
Wed 06:41:05 PM 33.5064 -82.8231 76° East 486 559 33,800 -850 Descending Atlanta Center
Wed 06:42:05 PM 33.5383 -82.6706 76° East 480 552 33,000 -400 Descending Atlanta Center
Wed 06:43:05 PM 33.5719 -82.5156 75° East 475 547 33,000  Level Atlanta Center
Wed 06:44:05 PM 33.6158 -82.3650 71° East 469 540 33,000  Level Atlanta Center
Wed 06:45:55 PM 33.6981 -82.0664 72° East 495 570 33,000  Level Jacksonville Center
Wed 06:46:56 PM 33.7408 -81.9136 71° East 495 570 33,000  Level Jacksonville Center
Wed 06:47:55 PM 33.7833 -81.7656 71° East 482 555 33,000  Level Jacksonville Center
Wed 06:48:55 PM 33.8239 -81.6225 71° East 463 533 33,000  Level Jacksonville Center
Wed 06:49:55 PM 33.8661 -81.4769 71° East 458 527 33,000 -250 Level Jacksonville Center
Wed 06:50:55 PM 33.9042 -81.3411 71° East 462 532 32,500 -700 Descending Jacksonville Center
Wed 06:51:55 PM 33.9461 -81.1928 71° East 469 540 31,600 -750 Descending Jacksonville Center
Wed 06:52:55 PM 33.9897 -81.0442 70° East 469 540 31,000 -298 Descending Jacksonville Center
Wed 06:53:56 PM 34.0294 -80.9006 72° East 458 527 31,000 -300 Level Jacksonville Center
Wed 06:54:55 PM 34.0708 -80.7517 71° East 458 527 30,400 -807 Descending Jacksonville Center
Wed 06:55:55 PM 34.1225 -80.6122 66° East 463 533 29,400 -1,350 Descending Jacksonville Center
Wed 06:56:55 PM 34.2208 -80.5194 38° Northeast 435 501 27,700 -2,000 Descending Jacksonville Center
Wed 06:57:55 PM 34.3217 -80.4386 34° Northeast 424 488 25,400 -2,319 Descending Jacksonville Center
Wed 06:59:38 PM 34.4836 -80.3083 34° Northeast 415 478 21,400 -1,620 Descending Washington Center
Wed 07:00:38 PM 34.5722 -80.2303 36° Northeast 398 458 21,000 -200 Descending Washington Center
Wed 07:01:38 PM 34.6581 -80.1644 32° Northeast 376 433 21,000  Level Washington Center
Wed 07:02:38 PM 34.7486 -80.0886 35° Northeast 382 440 21,000  Level Washington Center
Wed 07:03:38 PM 34.8372 -80.0075 37° Northeast 392 451 21,000  Level Washington Center
Wed 07:04:38 PM 34.9200 -79.9133 43° Northeast 398 458 21,000  Level Washington Center
Wed 07:05:38 PM 35.0025 -79.8214 42° Northeast 403 464 21,000  Level Washington Center
Wed 07:06:38 PM 35.0850 -79.7317 42° Northeast 397 457 21,000  Level Washington Center
Wed 07:07:38 PM 35.1694 -79.6394 42° Northeast 397 457 21,000 -600 Level Washington Center
Wed 07:08:38 PM 35.2578 -79.5600 36° Northeast 397 457 19,800 -1,551 Descending Washington Center
Wed 07:09:07 PM 35.3047 -79.5292 28° Northeast 366 421 18,700 -1,900 Descending Washington Center
Wed 07:09:38 PM 35.3453 -79.5008 30° Northeast 378 435 17,900 -1,556 Descending Washington Center
Wed 07:10:01 PM 35.3817 -79.4744 31° Northeast 338 389 17,300 -1,600 Descending Washington Center
Wed 07:10:38 PM 35.4328 -79.4414 28° Northeast 338 389 16,300 -1,527 Descending Washington Center
Wed 07:10:56 PM 35.4542 -79.4244 33° Northeast 320 368 15,900 -1,300 Descending Washington Center
Wed 07:11:38 PM 35.5011 -79.3883 32° Northeast 324 373 15,000 -1,475 Descending Washington Center
Wed 07:11:57 PM 35.5231 -79.3589 48° Northeast 312 359 14,400 -1,500 Descending Washington Center
Wed 07:12:38 PM 35.5603 -79.2967 54° Northeast 300 345 13,500 -1,129 Descending Washington Center
Wed 07:13:38 PM 35.6067 -79.2197 53° Northeast 306 352 12,500 -1,275 Descending Washington Center
Wed 07:13:58 PM 35.6264 -79.1875 53° Northeast 312 359 11,800 -1,800 Descending Washington Center
Wed 07:14:38 PM 35.6614 -79.1275 54° Northeast 306 352 10,700 -1,612 Descending Washington Center
Wed 07:15:05 PM 35.6811 -79.0953 53° Northeast 294 338 10,000 -1,300 Descending Washington Center
Wed 07:15:38 PM 35.7031 -79.0606 52° Northeast 290 334 9,400 -1,500 Descending Washington Center
Wed 07:16:05 PM 35.7250 -79.0231 54° Northeast 251 289 8,500 -1,300 Descending Washington Center
Wed 07:16:38 PM 35.7425 -78.9931 54° Northeast 264 304 8,100 -411 Descending Washington Center
Wed 07:17:18 PM 35.7733 -78.9431 53° Northeast 237 273 8,000 -100 Descending Washington Center
Wed 07:17:38 PM 35.7842 -78.9283 48° Northeast 249 287 8,000  Level Washington Center
Wed 07:18:07 PM 35.8078 -78.9011 43° Northeast 245 282 8,000  Level Washington Center
Wed 07:18:38 PM 35.8414 -78.8897 15° North 237 273 8,000  Level Washington Center
Wed 07:19:01 PM 35.8728 -78.8883 North 247 284 8,000 -533 Level Washington Center
Wed 07:20:08 PM 35.9428 -78.8528 22° Northeast 246 283 7,200 -938 Descending Washington Center
Wed 07:21:09 PM 35.9942 -78.8011 39° Northeast 240 276 6,000 -1,339 Descending Washington Center
Wed 07:22:09 PM 36.0336 -78.7308 55° Northeast 232 267 4,500 -1,323 Descending Washington Center
Wed 07:23:16 PM 35.9950 -78.6933 142° Southeast 208 239 3,200 -1,209 Descending Washington Center
Wed 07:24:23 PM 35.9442 -78.7194 203° Southwest 175 201 1,800 -1,254 Descending Washington Center

Login

Don't have an account? Register now (free) for customized features, flight alerts, and more!